This is the latest recevied weather packets stored in our database for station/object GBTWP-2. If no packets are shown the sender has not sent any weather packets the latest 10 day(s).
| Time | Temp. | Humidity | Pressure | Rain* | Wind** | Luminosity | Snow |
|---|---|---|---|---|---|---|---|
| 1777823704 | 13.33° C | 47% | 1014.1 hPa | 0 mm | - | 145 W/m² | - |
| 1777822502 | 12.78° C | 47% | 1014.5 hPa | 0 mm | - | 179 W/m² | - |
| 1777821902 | 12.22° C | 45% | 1014.7 hPa | 0 mm | - | 130 W/m² | - |
| 1777821602 | 12.22° C | 46% | 1014.6 hPa | 0 mm | - | 91 W/m² | - |
| 1777821002 | 12.22° C | 47% | 1014.5 hPa | 0 mm | - | 75 W/m² | - |
| 1777820701 | 12.22° C | 48% | 1014.9 hPa | 0 mm | - | 70 W/m² | - |
| 1777820402 | 12.22° C | 47% | 1014.9 hPa | 0 mm | - | 81 W/m² | - |
| 1777818302 | 12.78° C | 47% | 1014.5 hPa | 0 mm | - | 197 W/m² | - |
| 1777818002 | 12.22° C | 47% | 1014.7 hPa | 0 mm | - | 82 W/m² | - |
| 1777817701 | 11.67° C | 48% | 1014.9 hPa | 0 mm | - | 82 W/m² | - |
| 1777817101 | 11.67° C | 48% | 1015 hPa | 0 mm | - | 79 W/m² | - |
| 1777816802 | 11.11° C | 50% | 1015 hPa | 0 mm | - | 82 W/m² | - |
| 1777816502 | 11.11° C | 50% | 1015 hPa | 0 mm | - | 101 W/m² | - |
| 1777816202 | 11.11° C | 49% | 1014.9 hPa | 0 mm | - | 70 W/m² | - |
| 1777815902 | 11.11° C | 51% | 1015.1 hPa | 0 mm | - | 80 W/m² | - |
| 1777815601 | 11.11° C | 52% | 1015.1 hPa | 0 mm | - | 97 W/m² | - |
| 1777815302 | 10.56° C | 50% | 1015.1 hPa | 0 mm | - | 95 W/m² | - |
| 1777814402 | 10° C | 50% | 1015.2 hPa | 0 mm | - | 81 W/m² | - |
| 1777814101 | 10° C | 50% | 1015.1 hPa | 0 mm | - | 95 W/m² | - |
| 1777813802 | 10° C | 53% | 1015.1 hPa | 0 mm | - | 73 W/m² | - |
| 1777813502 | 10° C | 51% | 1015.1 hPa | 0 mm | - | 69 W/m² | - |
| 1777812902 | 9.44° C | 54% | 1015 hPa | 0 mm | - | 98 W/m² | - |
| 1777812601 | 9.44° C | 52% | 1015.1 hPa | 0 mm | - | 56 W/m² | - |
| 1777812002 | 8.89° C | 52% | 1015.3 hPa | 0 mm | - | 55 W/m² | - |
| 1777811701 | 9.44° C | 51% | 1015.2 hPa | 0 mm | - | 38 W/m² | - |
* Rain latest hour (hover to see other rain measurements)
** Current wind speed in m/s (hover to see current wind gust speed)